sensor_id;sensor_type;location;lat;lon;timestamp;temperature;humidity
17571;DHT22;8903;52.220;20.978;2022-08-18T00:02:27;21.90;99.90
17571;DHT22;8903;52.220;20.978;2022-08-18T00:04:55;21.90;99.90
17571;DHT22;8903;52.220;20.978;2022-08-18T00:07:22;21.90;99.90
17571;DHT22;8903;52.220;20.978;2022-08-18T00:09:49;21.80;99.90
17571;DHT22;8903;52.220;20.978;2022-08-18T00:12:16;21.80;99.90
17571;DHT22;8903;52.220;20.978;2022-08-18T00:14:44;21.80;99.90
17571;DHT22;8903;52.220;20.978;2022-08-18T00:17:11;21.80;99.90
17571;DHT22;8903;52.220;20.978;2022-08-18T00:19:39;21.70;99.90
17571;DHT22;8903;52.220;20.978;2022-08-18T00:22:05;21.70;99.90
17571;DHT22;8903;52.220;20.978;2022-08-18T00:24:32;21.70;99.90
17571;DHT22;8903;52.220;20.978;2022-08-18T00:26:59;21.70;99.90
17571;DHT22;8903;52.220;20.978;2022-08-18T00:29:26;21.60;99.90
17571;DHT22;8903;52.220;20.978;2022-08-18T00:31:53;21.60;99.90
17571;DHT22;8903;52.220;20.978;2022-08-18T00:34:19;21.60;99.90
17571;DHT22;8903;52.220;20.978;2022-08-18T00:36:47;21.60;99.90
17571;DHT22;8903;52.220;20.978;2022-08-18T00:39:15;21.60;99.90
17571;DHT22;8903;52.220;20.978;2022-08-18T00:41:42;21.60;99.90
17571;DHT22;8903;52.220;20.978;2022-08-18T00:44:08;21.60;99.90
17571;DHT22;8903;52.220;20.978;2022-08-18T00:46:36;21.60;99.90
17571;DHT22;8903;52.220;20.978;2022-08-18T00:49:03;21.50;99.90
17571;DHT22;8903;52.220;20.978;2022-08-18T00:51:32;21.50;99.90
17571;DHT22;8903;52.220;20.978;2022-08-18T00:54:04;21.50;99.90
17571;DHT22;8903;52.220;20.978;2022-08-18T00:56:33;21.50;99.90
17571;DHT22;8903;52.220;20.978;2022-08-18T00:59:00;21.40;99.90
17571;DHT22;8903;52.220;20.978;2022-08-18T01:01:29;21.40;99.90
17571;DHT22;8903;52.220;20.978;2022-08-18T01:03:57;21.40;99.90
17571;DHT22;8903;52.220;20.978;2022-08-18T01:06:27;21.40;99.90
17571;DHT22;8903;52.220;20.978;2022-08-18T01:08:56;21.40;99.90
17571;DHT22;8903;52.220;20.978;2022-08-18T01:11:25;21.40;99.90
17571;DHT22;8903;52.220;20.978;2022-08-18T01:13:52;21.30;99.90
17571;DHT22;8903;52.220;20.978;2022-08-18T01:16:19;21.40;99.90
17571;DHT22;8903;52.220;20.978;2022-08-18T01:19:03;21.30;99.90
17571;DHT22;8903;52.220;20.978;2022-08-18T01:21:51;21.30;99.90
17571;DHT22;8903;52.220;20.978;2022-08-18T01:24:22;21.30;99.90
17571;DHT22;8903;52.220;20.978;2022-08-18T01:27:11;21.30;99.90
17571;DHT22;8903;52.220;20.978;2022-08-18T01:29:38;21.20;99.90
17571;DHT22;8903;52.220;20.978;2022-08-18T01:32:05;21.20;99.90
17571;DHT22;8903;52.220;20.978;2022-08-18T01:34:31;21.20;99.90
17571;DHT22;8903;52.220;20.978;2022-08-18T01:36:58;21.20;99.90
17571;DHT22;8903;52.220;20.978;2022-08-18T01:39:26;21.20;99.90
17571;DHT22;8903;52.220;20.978;2022-08-18T01:41:53;21.20;99.90
17571;DHT22;8903;52.220;20.978;2022-08-18T01:44:19;21.10;99.90
17571;DHT22;8903;52.220;20.978;2022-08-18T01:46:46;21.10;99.90
17571;DHT22;8903;52.220;20.978;2022-08-18T01:49:12;21.10;99.90
17571;DHT22;8903;52.220;20.978;2022-08-18T01:51:39;21.10;99.90
17571;DHT22;8903;52.220;20.978;2022-08-18T01:54:08;21.10;99.90
17571;DHT22;8903;52.220;20.978;2022-08-18T01:56:37;21.00;99.90
17571;DHT22;8903;52.220;20.978;2022-08-18T01:59:05;21.00;99.90
17571;DHT22;8903;52.220;20.978;2022-08-18T02:01:36;21.00;99.90
17571;DHT22;8903;52.220;20.978;2022-08-18T02:04:03;21.00;99.90
17571;DHT22;8903;52.220;20.978;2022-08-18T02:06:31;21.00;99.90
17571;DHT22;8903;52.220;20.978;2022-08-18T02:08:58;21.00;99.90
17571;DHT22;8903;52.220;20.978;2022-08-18T02:11:25;21.00;99.90
17571;DHT22;8903;52.220;20.978;2022-08-18T02:13:53;20.90;99.90
17571;DHT22;8903;52.220;20.978;2022-08-18T02:16:20;20.90;99.90
17571;DHT22;8903;52.220;20.978;2022-08-18T02:18:46;20.90;99.90
17571;DHT22;8903;52.220;20.978;2022-08-18T02:21:14;20.90;99.90
17571;DHT22;8903;52.220;20.978;2022-08-18T02:23:42;20.90;99.90
17571;DHT22;8903;52.220;20.978;2022-08-18T02:26:09;20.90;99.90
17571;DHT22;8903;52.220;20.978;2022-08-18T02:28:36;20.90;99.90
17571;DHT22;8903;52.220;20.978;2022-08-18T02:31:05;20.80;99.90
17571;DHT22;8903;52.220;20.978;2022-08-18T02:33:32;20.90;99.90
17571;DHT22;8903;52.220;20.978;2022-08-18T02:35:59;20.80;99.90
17571;DHT22;8903;52.220;20.978;2022-08-18T02:38:26;20.80;99.90
17571;DHT22;8903;52.220;20.978;2022-08-18T02:40:54;20.80;99.90
17571;DHT22;8903;52.220;20.978;2022-08-18T02:43:21;20.80;99.90
17571;DHT22;8903;52.220;20.978;2022-08-18T02:45:48;20.80;99.90
17571;DHT22;8903;52.220;20.978;2022-08-18T02:48:16;20.80;99.90
17571;DHT22;8903;52.220;20.978;2022-08-18T02:50:43;20.80;99.90
17571;DHT22;8903;52.220;20.978;2022-08-18T02:53:11;20.70;99.90
17571;DHT22;8903;52.220;20.978;2022-08-18T02:55:42;20.70;99.90
17571;DHT22;8903;52.220;20.978;2022-08-18T02:58:09;20.70;99.90
17571;DHT22;8903;52.220;20.978;2022-08-18T03:00:37;20.70;99.90
17571;DHT22;8903;52.220;20.978;2022-08-18T03:03:04;20.70;99.90
17571;DHT22;8903;52.220;20.978;2022-08-18T03:05:32;20.70;99.90
17571;DHT22;8903;52.220;20.978;2022-08-18T03:07:59;20.70;99.90
17571;DHT22;8903;52.220;20.978;2022-08-18T03:10:26;20.70;99.90
17571;DHT22;8903;52.220;20.978;2022-08-18T03:12:52;20.70;99.90
17571;DHT22;8903;52.220;20.978;2022-08-18T03:15:19;20.60;99.90
17571;DHT22;8903;52.220;20.978;2022-08-18T03:17:46;20.70;99.90
17571;DHT22;8903;52.220;20.978;2022-08-18T03:20:12;20.70;99.90
17571;DHT22;8903;52.220;20.978;2022-08-18T03:22:40;20.70;99.90
17571;DHT22;8903;52.220;20.978;2022-08-18T03:25:07;20.70;99.90
17571;DHT22;8903;52.220;20.978;2022-08-18T03:27:34;20.70;99.90
17571;DHT22;8903;52.220;20.978;2022-08-18T03:30:01;20.70;99.90
17571;DHT22;8903;52.220;20.978;2022-08-18T03:32:28;20.60;99.90
17571;DHT22;8903;52.220;20.978;2022-08-18T03:34:56;20.60;99.90
17571;DHT22;8903;52.220;20.978;2022-08-18T03:37:23;20.60;99.90
17571;DHT22;8903;52.220;20.978;2022-08-18T03:39:51;20.70;99.90
17571;DHT22;8903;52.220;20.978;2022-08-18T03:42:19;20.70;99.90
17571;DHT22;8903;52.220;20.978;2022-08-18T03:44:46;20.70;99.90
17571;DHT22;8903;52.220;20.978;2022-08-18T03:47:13;20.70;99.90
17571;DHT22;8903;52.220;20.978;2022-08-18T03:49:42;20.70;99.90
17571;DHT22;8903;52.220;20.978;2022-08-18T03:52:10;20.70;99.90
17571;DHT22;8903;52.220;20.978;2022-08-18T03:54:37;20.70;99.90
17571;DHT22;8903;52.220;20.978;2022-08-18T03:57:07;20.80;99.90
17571;DHT22;8903;52.220;20.978;2022-08-18T03:59:35;20.80;99.90
17571;DHT22;8903;52.220;20.978;2022-08-18T04:02:03;20.80;99.90
17571;DHT22;8903;52.220;20.978;2022-08-18T04:04:30;20.90;99.90
17571;DHT22;8903;52.220;20.978;2022-08-18T04:06:57;20.90;99.90
17571;DHT22;8903;52.220;20.978;2022-08-18T04:09:25;20.90;99.90
17571;DHT22;8903;52.220;20.978;2022-08-18T04:11:52;21.00;99.90
17571;DHT22;8903;52.220;20.978;2022-08-18T04:14:21;21.00;99.90
17571;DHT22;8903;52.220;20.978;2022-08-18T04:16:49;21.00;99.90
17571;DHT22;8903;52.220;20.978;2022-08-18T04:19:16;21.10;99.90
17571;DHT22;8903;52.220;20.978;2022-08-18T04:21:43;21.20;99.90
17571;DHT22;8903;52.220;20.978;2022-08-18T04:24:11;21.20;99.90
17571;DHT22;8903;52.220;20.978;2022-08-18T04:26:39;21.30;99.90
17571;DHT22;8903;52.220;20.978;2022-08-18T04:29:06;21.40;99.90
17571;DHT22;8903;52.220;20.978;2022-08-18T04:31:35;21.40;99.90
17571;DHT22;8903;52.220;20.978;2022-08-18T04:34:02;21.50;99.90
17571;DHT22;8903;52.220;20.978;2022-08-18T04:36:29;21.50;99.90
17571;DHT22;8903;52.220;20.978;2022-08-18T04:38:56;21.60;99.90
17571;DHT22;8903;52.220;20.978;2022-08-18T04:41:23;21.60;99.90
17571;DHT22;8903;52.220;20.978;2022-08-18T04:43:51;21.70;99.90
17571;DHT22;8903;52.220;20.978;2022-08-18T04:46:19;21.80;99.90
17571;DHT22;8903;52.220;20.978;2022-08-18T04:48:47;21.90;99.90
17571;DHT22;8903;52.220;20.978;2022-08-18T04:51:14;21.90;99.90
17571;DHT22;8903;52.220;20.978;2022-08-18T04:53:41;21.90;99.90
17571;DHT22;8903;52.220;20.978;2022-08-18T04:56:14;22.00;99.90
17571;DHT22;8903;52.220;20.978;2022-08-18T04:58:44;22.00;99.90
17571;DHT22;8903;52.220;20.978;2022-08-18T05:01:16;22.10;99.90
17571;DHT22;8903;52.220;20.978;2022-08-18T05:03:43;22.10;99.90
17571;DHT22;8903;52.220;20.978;2022-08-18T05:06:11;22.20;99.90
17571;DHT22;8903;52.220;20.978;2022-08-18T05:08:38;22.30;99.90
17571;DHT22;8903;52.220;20.978;2022-08-18T05:11:05;22.30;99.90
17571;DHT22;8903;52.220;20.978;2022-08-18T05:13:31;22.40;99.90
17571;DHT22;8903;52.220;20.978;2022-08-18T05:15:59;22.50;99.90
17571;DHT22;8903;52.220;20.978;2022-08-18T05:18:28;22.50;99.90
17571;DHT22;8903;52.220;20.978;2022-08-18T05:20:55;22.50;99.90
17571;DHT22;8903;52.220;20.978;2022-08-18T05:23:24;22.60;99.90
17571;DHT22;8903;52.220;20.978;2022-08-18T05:25:55;22.60;99.90
17571;DHT22;8903;52.220;20.978;2022-08-18T05:28:22;22.70;99.90
17571;DHT22;8903;52.220;20.978;2022-08-18T05:30:48;22.80;99.90
17571;DHT22;8903;52.220;20.978;2022-08-18T05:33:15;22.90;99.90
17571;DHT22;8903;52.220;20.978;2022-08-18T05:35:43;23.00;99.90
17571;DHT22;8903;52.220;20.978;2022-08-18T05:38:20;23.00;99.90
17571;DHT22;8903;52.220;20.978;2022-08-18T05:41:06;23.10;99.90
17571;DHT22;8903;52.220;20.978;2022-08-18T05:43:33;23.20;99.90
17571;DHT22;8903;52.220;20.978;2022-08-18T05:46:00;23.30;99.90
17571;DHT22;8903;52.220;20.978;2022-08-18T05:48:29;23.30;99.90
17571;DHT22;8903;52.220;20.978;2022-08-18T05:50:56;23.40;99.90
17571;DHT22;8903;52.220;20.978;2022-08-18T05:53:26;23.50;99.90
17571;DHT22;8903;52.220;20.978;2022-08-18T05:56:09;23.50;99.90
17571;DHT22;8903;52.220;20.978;2022-08-18T05:58:54;23.60;99.90
17571;DHT22;8903;52.220;20.978;2022-08-18T06:01:22;23.70;99.90
17571;DHT22;8903;52.220;20.978;2022-08-18T06:03:50;23.80;99.90
17571;DHT22;8903;52.220;20.978;2022-08-18T06:06:19;23.90;99.90
17571;DHT22;8903;52.220;20.978;2022-08-18T06:08:49;23.90;99.90
17571;DHT22;8903;52.220;20.978;2022-08-18T06:11:19;23.90;99.90
17571;DHT22;8903;52.220;20.978;2022-08-18T06:13:46;24.10;99.90
17571;DHT22;8903;52.220;20.978;2022-08-18T06:16:16;24.10;99.90
17571;DHT22;8903;52.220;20.978;2022-08-18T06:18:46;24.20;99.90
17571;DHT22;8903;52.220;20.978;2022-08-18T06:21:18;24.30;99.90
17571;DHT22;8903;52.220;20.978;2022-08-18T06:23:50;24.30;99.90
17571;DHT22;8903;52.220;20.978;2022-08-18T06:26:24;24.40;99.90
17571;DHT22;8903;52.220;20.978;2022-08-18T06:28:57;24.50;99.90
17571;DHT22;8903;52.220;20.978;2022-08-18T06:31:28;24.60;99.90
17571;DHT22;8903;52.220;20.978;2022-08-18T06:34:00;24.60;99.90
17571;DHT22;8903;52.220;20.978;2022-08-18T06:36:33;24.70;99.90
17571;DHT22;8903;52.220;20.978;2022-08-18T06:39:04;24.70;99.90
17571;DHT22;8903;52.220;20.978;2022-08-18T06:41:36;24.80;99.90
17571;DHT22;8903;52.220;20.978;2022-08-18T06:44:05;24.80;99.90
17571;DHT22;8903;52.220;20.978;2022-08-18T06:46:35;24.90;99.90
17571;DHT22;8903;52.220;20.978;2022-08-18T06:49:05;25.10;99.90
17571;DHT22;8903;52.220;20.978;2022-08-18T06:51:33;25.10;99.90
17571;DHT22;8903;52.220;20.978;2022-08-18T06:54:01;25.20;99.90
17571;DHT22;8903;52.220;20.978;2022-08-18T06:56:34;25.20;99.90
17571;DHT22;8903;52.220;20.978;2022-08-18T06:59:16;25.30;99.90
17571;DHT22;8903;52.220;20.978;2022-08-18T07:01:44;25.40;99.90
17571;DHT22;8903;52.220;20.978;2022-08-18T07:06:53;25.50;99.90
17571;DHT22;8903;52.220;20.978;2022-08-18T07:09:20;25.60;99.90
17571;DHT22;8903;52.220;20.978;2022-08-18T07:11:59;25.70;99.90
17571;DHT22;8903;52.220;20.978;2022-08-18T07:14:27;25.70;99.90
17571;DHT22;8903;52.220;20.978;2022-08-18T07:17:07;25.80;99.90
17571;DHT22;8903;52.220;20.978;2022-08-18T07:19:34;25.90;99.90
17571;DHT22;8903;52.220;20.978;2022-08-18T07:22:02;25.90;99.90
17571;DHT22;8903;52.220;20.978;2022-08-18T07:24:30;26.00;99.90
17571;DHT22;8903;52.220;20.978;2022-08-18T07:26:58;26.10;99.90
17571;DHT22;8903;52.220;20.978;2022-08-18T07:29:27;26.20;99.90
17571;DHT22;8903;52.220;20.978;2022-08-18T07:31:54;26.30;99.90
17571;DHT22;8903;52.220;20.978;2022-08-18T07:34:23;26.40;99.90
17571;DHT22;8903;52.220;20.978;2022-08-18T07:36:51;26.40;99.90
17571;DHT22;8903;52.220;20.978;2022-08-18T07:39:22;26.50;99.90
17571;DHT22;8903;52.220;20.978;2022-08-18T07:41:51;26.50;99.90
17571;DHT22;8903;52.220;20.978;2022-08-18T07:44:22;26.60;99.90
17571;DHT22;8903;52.220;20.978;2022-08-18T07:46:53;26.50;99.90
17571;DHT22;8903;52.220;20.978;2022-08-18T07:49:22;26.50;99.90
17571;DHT22;8903;52.220;20.978;2022-08-18T07:51:51;26.60;99.90
17571;DHT22;8903;52.220;20.978;2022-08-18T07:54:22;26.70;99.90
17571;DHT22;8903;52.220;20.978;2022-08-18T07:56:54;26.70;99.90
17571;DHT22;8903;52.220;20.978;2022-08-18T07:59:24;26.80;99.90
17571;DHT22;8903;52.220;20.978;2022-08-18T08:01:59;26.90;99.90
17571;DHT22;8903;52.220;20.978;2022-08-18T08:04:34;26.90;99.90
17571;DHT22;8903;52.220;20.978;2022-08-18T08:07:04;26.90;99.90
17571;DHT22;8903;52.220;20.978;2022-08-18T08:09:36;26.90;99.90
17571;DHT22;8903;52.220;20.978;2022-08-18T08:12:09;26.90;99.90
17571;DHT22;8903;52.220;20.978;2022-08-18T08:14:40;27.00;99.90
17571;DHT22;8903;52.220;20.978;2022-08-18T08:17:11;27.00;99.90
17571;DHT22;8903;52.220;20.978;2022-08-18T08:19:52;27.10;99.90
17571;DHT22;8903;52.220;20.978;2022-08-18T08:22:22;27.10;99.90
17571;DHT22;8903;52.220;20.978;2022-08-18T08:24:55;27.20;99.90
17571;DHT22;8903;52.220;20.978;2022-08-18T08:27:26;27.20;99.90
17571;DHT22;8903;52.220;20.978;2022-08-18T08:29:57;27.20;99.90
17571;DHT22;8903;52.220;20.978;2022-08-18T08:32:28;27.30;99.90
17571;DHT22;8903;52.220;20.978;2022-08-18T08:34:56;27.40;99.90
17571;DHT22;8903;52.220;20.978;2022-08-18T08:37:26;27.50;99.90
17571;DHT22;8903;52.220;20.978;2022-08-18T08:39:56;27.60;99.90
17571;DHT22;8903;52.220;20.978;2022-08-18T08:42:26;27.60;99.90
17571;DHT22;8903;52.220;20.978;2022-08-18T08:44:58;27.50;99.90
17571;DHT22;8903;52.220;20.978;2022-08-18T08:47:30;27.50;99.90
17571;DHT22;8903;52.220;20.978;2022-08-18T08:49:59;27.50;99.90
17571;DHT22;8903;52.220;20.978;2022-08-18T08:52:28;27.70;99.90
17571;DHT22;8903;52.220;20.978;2022-08-18T08:54:57;27.70;99.90
17571;DHT22;8903;52.220;20.978;2022-08-18T08:57:26;27.60;99.90
17571;DHT22;8903;52.220;20.978;2022-08-18T08:59:56;27.50;99.90
17571;DHT22;8903;52.220;20.978;2022-08-18T09:02:47;27.40;99.90
17571;DHT22;8903;52.220;20.978;2022-08-18T09:05:16;27.40;99.90
17571;DHT22;8903;52.220;20.978;2022-08-18T09:08:00;27.60;99.90
17571;DHT22;8903;52.220;20.978;2022-08-18T09:10:41;27.70;99.90
17571;DHT22;8903;52.220;20.978;2022-08-18T09:16:00;27.90;99.90
17571;DHT22;8903;52.220;20.978;2022-08-18T09:18:41;28.00;99.90
17571;DHT22;8903;52.220;20.978;2022-08-18T09:21:15;28.10;99.90
17571;DHT22;8903;52.220;20.978;2022-08-18T09:23:45;28.00;99.90
17571;DHT22;8903;52.220;20.978;2022-08-18T09:26:23;28.00;99.90
17571;DHT22;8903;52.220;20.978;2022-08-18T09:28:55;28.10;99.90
17571;DHT22;8903;52.220;20.978;2022-08-18T09:31:24;28.10;99.90
17571;DHT22;8903;52.220;20.978;2022-08-18T09:33:57;28.30;99.90
17571;DHT22;8903;52.220;20.978;2022-08-18T09:36:33;28.40;99.90
17571;DHT22;8903;52.220;20.978;2022-08-18T09:39:06;28.30;99.90
17571;DHT22;8903;52.220;20.978;2022-08-18T09:41:52;28.30;99.90
17571;DHT22;8903;52.220;20.978;2022-08-18T09:47:05;28.20;99.90
17571;DHT22;8903;52.220;20.978;2022-08-18T09:49:41;28.30;99.90
17571;DHT22;8903;52.220;20.978;2022-08-18T09:54:53;28.50;99.90
17571;DHT22;8903;52.220;20.978;2022-08-18T09:57:24;28.50;99.90
17571;DHT22;8903;52.220;20.978;2022-08-18T10:00:16;28.60;99.90
17571;DHT22;8903;52.220;20.978;2022-08-18T10:05:38;28.70;99.90
17571;DHT22;8903;52.220;20.978;2022-08-18T10:08:26;28.80;99.90
17571;DHT22;8903;52.220;20.978;2022-08-18T10:10:54;28.60;99.90
17571;DHT22;8903;52.220;20.978;2022-08-18T10:13:24;28.50;99.90
17571;DHT22;8903;52.220;20.978;2022-08-18T10:15:59;28.40;99.90
17571;DHT22;8903;52.220;20.978;2022-08-18T10:18:37;28.50;99.90
17571;DHT22;8903;52.220;20.978;2022-08-18T10:21:11;28.60;99.90
17571;DHT22;8903;52.220;20.978;2022-08-18T10:23:51;28.70;99.90
17571;DHT22;8903;52.220;20.978;2022-08-18T10:29:05;28.80;99.90
17571;DHT22;8903;52.220;20.978;2022-08-18T10:34:35;28.90;99.70
17571;DHT22;8903;52.220;20.978;2022-08-18T10:37:04;29.00;99.50
17571;DHT22;8903;52.220;20.978;2022-08-18T10:39:42;29.20;99.20
17571;DHT22;8903;52.220;20.978;2022-08-18T10:42:09;29.20;99.30
17571;DHT22;8903;52.220;20.978;2022-08-18T10:44:39;29.20;99.00
17571;DHT22;8903;52.220;20.978;2022-08-18T10:47:07;29.30;98.50
17571;DHT22;8903;52.220;20.978;2022-08-18T10:49:35;29.30;98.70
17571;DHT22;8903;52.220;20.978;2022-08-18T10:52:11;29.30;98.60
17571;DHT22;8903;52.220;20.978;2022-08-18T10:54:45;29.40;98.60
17571;DHT22;8903;52.220;20.978;2022-08-18T10:57:18;29.30;98.40
17571;DHT22;8903;52.220;20.978;2022-08-18T10:59:48;29.40;98.30
17571;DHT22;8903;52.220;20.978;2022-08-18T11:02:24;29.50;98.00
17571;DHT22;8903;52.220;20.978;2022-08-18T11:05:00;29.50;98.60
17571;DHT22;8903;52.220;20.978;2022-08-18T11:07:31;29.50;98.90
17571;DHT22;8903;52.220;20.978;2022-08-18T11:10:00;29.60;98.70
17571;DHT22;8903;52.220;20.978;2022-08-18T11:12:45;29.80;98.40
17571;DHT22;8903;52.220;20.978;2022-08-18T11:15:16;29.80;98.40
17571;DHT22;8903;52.220;20.978;2022-08-18T11:17:51;29.70;98.20
17571;DHT22;8903;52.220;20.978;2022-08-18T11:20:20;29.80;98.40
17571;DHT22;8903;52.220;20.978;2022-08-18T11:22:51;29.80;98.20
17571;DHT22;8903;52.220;20.978;2022-08-18T11:25:22;29.90;98.50
17571;DHT22;8903;52.220;20.978;2022-08-18T11:27:49;30.10;98.10
17571;DHT22;8903;52.220;20.978;2022-08-18T11:30:16;30.30;97.60
17571;DHT22;8903;52.220;20.978;2022-08-18T11:32:43;30.50;96.80
17571;DHT22;8903;52.220;20.978;2022-08-18T11:35:10;32.40;94.80
17571;DHT22;8903;52.220;20.978;2022-08-18T11:37:41;34.20;92.80
17571;DHT22;8903;52.220;20.978;2022-08-18T11:40:19;34.80;91.50
17571;DHT22;8903;52.220;20.978;2022-08-18T11:42:49;34.90;92.00
17571;DHT22;8903;52.220;20.978;2022-08-18T11:45:19;34.90;91.60
17571;DHT22;8903;52.220;20.978;2022-08-18T11:48:00;34.70;92.00
17571;DHT22;8903;52.220;20.978;2022-08-18T11:50:29;34.60;92.30
17571;DHT22;8903;52.220;20.978;2022-08-18T11:53:09;34.30;92.00
17571;DHT22;8903;52.220;20.978;2022-08-18T11:55:40;33.60;92.50
17571;DHT22;8903;52.220;20.978;2022-08-18T11:58:07;33.50;92.80
17571;DHT22;8903;52.220;20.978;2022-08-18T12:03:21;33.60;93.20
17571;DHT22;8903;52.220;20.978;2022-08-18T12:05:52;33.70;93.30
17571;DHT22;8903;52.220;20.978;2022-08-18T12:08:21;34.00;93.00
17571;DHT22;8903;52.220;20.978;2022-08-18T12:11:01;34.40;92.80
17571;DHT22;8903;52.220;20.978;2022-08-18T12:13:28;34.60;92.20
17571;DHT22;8903;52.220;20.978;2022-08-18T12:16:09;34.50;92.60
17571;DHT22;8903;52.220;20.978;2022-08-18T12:18:36;34.50;91.50
17571;DHT22;8903;52.220;20.978;2022-08-18T12:21:05;35.70;91.30
17571;DHT22;8903;52.220;20.978;2022-08-18T12:23:33;37.10;89.80
17571;DHT22;8903;52.220;20.978;2022-08-18T12:26:02;38.10;86.70
17571;DHT22;8903;52.220;20.978;2022-08-18T12:28:29;37.80;87.30
17571;DHT22;8903;52.220;20.978;2022-08-18T12:30:55;38.90;87.10
17571;DHT22;8903;52.220;20.978;2022-08-18T12:33:22;38.70;87.20
17571;DHT22;8903;52.220;20.978;2022-08-18T12:35:49;38.60;86.50
17571;DHT22;8903;52.220;20.978;2022-08-18T12:38:16;39.90;84.90
17571;DHT22;8903;52.220;20.978;2022-08-18T12:40:43;40.90;82.80
17571;DHT22;8903;52.220;20.978;2022-08-18T12:43:11;41.10;81.40
17571;DHT22;8903;52.220;20.978;2022-08-18T12:45:38;41.10;81.40
17571;DHT22;8903;52.220;20.978;2022-08-18T12:48:05;42.00;80.20
17571;DHT22;8903;52.220;20.978;2022-08-18T12:50:32;41.90;79.10
17571;DHT22;8903;52.220;20.978;2022-08-18T12:52:59;41.60;78.50
17571;DHT22;8903;52.220;20.978;2022-08-18T12:55:26;41.30;79.50
17571;DHT22;8903;52.220;20.978;2022-08-18T12:57:53;40.40;79.90
17571;DHT22;8903;52.220;20.978;2022-08-18T13:00:21;40.20;80.60
17571;DHT22;8903;52.220;20.978;2022-08-18T13:02:48;39.70;81.10
17571;DHT22;8903;52.220;20.978;2022-08-18T13:05:16;39.60;81.50
17571;DHT22;8903;52.220;20.978;2022-08-18T13:07:43;39.80;81.60
17571;DHT22;8903;52.220;20.978;2022-08-18T13:10:10;39.30;81.60
17571;DHT22;8903;52.220;20.978;2022-08-18T13:12:37;39.30;82.60
17571;DHT22;8903;52.220;20.978;2022-08-18T13:15:04;39.10;82.50
17571;DHT22;8903;52.220;20.978;2022-08-18T13:17:35;38.90;83.40
17571;DHT22;8903;52.220;20.978;2022-08-18T13:20:03;38.70;83.20
17571;DHT22;8903;52.220;20.978;2022-08-18T13:22:32;37.70;84.50
17571;DHT22;8903;52.220;20.978;2022-08-18T13:25:00;37.00;86.90
17571;DHT22;8903;52.220;20.978;2022-08-18T13:27:27;35.90;88.60
17571;DHT22;8903;52.220;20.978;2022-08-18T13:29:54;35.40;89.70
17571;DHT22;8903;52.220;20.978;2022-08-18T13:32:20;35.40;89.90
17571;DHT22;8903;52.220;20.978;2022-08-18T13:34:49;35.20;89.90
17571;DHT22;8903;52.220;20.978;2022-08-18T13:37:16;35.20;90.30
17571;DHT22;8903;52.220;20.978;2022-08-18T13:39:43;35.60;90.30
17571;DHT22;8903;52.220;20.978;2022-08-18T13:42:10;36.00;90.20
17571;DHT22;8903;52.220;20.978;2022-08-18T13:44:37;36.40;90.00
17571;DHT22;8903;52.220;20.978;2022-08-18T13:47:06;36.60;88.50
17571;DHT22;8903;52.220;20.978;2022-08-18T13:49:33;36.70;88.70
17571;DHT22;8903;52.220;20.978;2022-08-18T13:52:01;37.20;88.50
17571;DHT22;8903;52.220;20.978;2022-08-18T13:54:28;37.60;87.70
17571;DHT22;8903;52.220;20.978;2022-08-18T13:56:57;37.70;85.90
17571;DHT22;8903;52.220;20.978;2022-08-18T13:59:24;37.50;86.90
17571;DHT22;8903;52.220;20.978;2022-08-18T14:01:56;37.60;86.50
17571;DHT22;8903;52.220;20.978;2022-08-18T14:04:23;37.30;86.60
17571;DHT22;8903;52.220;20.978;2022-08-18T14:06:49;37.10;87.40
17571;DHT22;8903;52.220;20.978;2022-08-18T14:09:18;37.20;87.60
17571;DHT22;8903;52.220;20.978;2022-08-18T14:11:45;37.10;87.50
17571;DHT22;8903;52.220;20.978;2022-08-18T14:14:13;36.90;87.60
17571;DHT22;8903;52.220;20.978;2022-08-18T14:16:39;36.60;88.40
17571;DHT22;8903;52.220;20.978;2022-08-18T14:19:06;37.00;88.30
17571;DHT22;8903;52.220;20.978;2022-08-18T14:21:51;37.90;88.00
17571;DHT22;8903;52.220;20.978;2022-08-18T14:24:38;38.20;87.40
17571;DHT22;8903;52.220;20.978;2022-08-18T14:27:24;38.70;88.40
17571;DHT22;8903;52.220;20.978;2022-08-18T14:29:50;39.40;86.50
17571;DHT22;8903;52.220;20.978;2022-08-18T14:32:19;39.70;85.40
17571;DHT22;8903;52.220;20.978;2022-08-18T14:34:46;40.10;84.80
17571;DHT22;8903;52.220;20.978;2022-08-18T14:37:13;39.90;85.00
17571;DHT22;8903;52.220;20.978;2022-08-18T14:39:41;40.10;84.90
17571;DHT22;8903;52.220;20.978;2022-08-18T14:42:08;40.30;84.60
17571;DHT22;8903;52.220;20.978;2022-08-18T14:44:37;40.50;84.10
17571;DHT22;8903;52.220;20.978;2022-08-18T14:47:04;40.80;83.70
17571;DHT22;8903;52.220;20.978;2022-08-18T14:49:30;41.20;83.30
17571;DHT22;8903;52.220;20.978;2022-08-18T14:51:57;41.50;82.70
17571;DHT22;8903;52.220;20.978;2022-08-18T14:54:25;41.00;82.60
17571;DHT22;8903;52.220;20.978;2022-08-18T14:56:53;41.00;83.10
17571;DHT22;8903;52.220;20.978;2022-08-18T14:59:20;40.90;83.20
17571;DHT22;8903;52.220;20.978;2022-08-18T15:01:48;41.10;82.90
17571;DHT22;8903;52.220;20.978;2022-08-18T15:04:14;41.10;83.20
17571;DHT22;8903;52.220;20.978;2022-08-18T15:06:41;40.90;83.50
17571;DHT22;8903;52.220;20.978;2022-08-18T15:09:08;40.90;82.60
17571;DHT22;8903;52.220;20.978;2022-08-18T15:11:34;40.10;83.50
17571;DHT22;8903;52.220;20.978;2022-08-18T15:14:02;39.30;84.40
17571;DHT22;8903;52.220;20.978;2022-08-18T15:16:29;39.10;84.80
17571;DHT22;8903;52.220;20.978;2022-08-18T15:18:59;38.70;84.70
17571;DHT22;8903;52.220;20.978;2022-08-18T15:21:26;39.10;85.00
17571;DHT22;8903;52.220;20.978;2022-08-18T15:24:10;39.30;84.50
17571;DHT22;8903;52.220;20.978;2022-08-18T15:26:55;39.20;84.70
17571;DHT22;8903;52.220;20.978;2022-08-18T15:29:23;38.80;84.80
17571;DHT22;8903;52.220;20.978;2022-08-18T15:31:50;38.40;84.60
17571;DHT22;8903;52.220;20.978;2022-08-18T15:34:17;38.00;85.40
17571;DHT22;8903;52.220;20.978;2022-08-18T15:36:44;37.40;86.00
17571;DHT22;8903;52.220;20.978;2022-08-18T15:39:12;36.80;87.30
17571;DHT22;8903;52.220;20.978;2022-08-18T15:41:39;36.20;88.60
17571;DHT22;8903;52.220;20.978;2022-08-18T15:44:07;35.90;89.20
17571;DHT22;8903;52.220;20.978;2022-08-18T15:46:36;35.40;90.10
17571;DHT22;8903;52.220;20.978;2022-08-18T15:49:03;35.00;90.40
17571;DHT22;8903;52.220;20.978;2022-08-18T15:51:32;34.40;90.90
17571;DHT22;8903;52.220;20.978;2022-08-18T15:53:59;33.90;91.40
17571;DHT22;8903;52.220;20.978;2022-08-18T15:56:26;33.50;91.70
17571;DHT22;8903;52.220;20.978;2022-08-18T15:58:53;33.10;92.20
17571;DHT22;8903;52.220;20.978;2022-08-18T16:01:21;32.70;92.70
17571;DHT22;8903;52.220;20.978;2022-08-18T16:03:49;32.50;93.40
17571;DHT22;8903;52.220;20.978;2022-08-18T16:06:17;32.40;93.30
17571;DHT22;8903;52.220;20.978;2022-08-18T16:08:44;32.30;93.60